Latest Weather Observations for Kuitpo

IDS60801

Issued at 10:01 am CDT Sunday 26 March 2017 (issued every 30 minutes, with the page automatically refreshed every 10 minutes)

About weather observations | Map of weather stations | Latest weather observations for SA | Other Formats
Station Details ID: 023887 Name: KUITPO FOREST RESERVE Lat: -35.17 Lon: 138.68 Height: 365.0 m
Data from the previous 72 hours. | See also: Recent months at Kuitpo
Date/Time
CDT
Temp
°C
App
Temp
°C
Dew
Point
°C
Rel
Hum
%
Delta-T
°C
Wind Press
QNH
hPa
Press
MSL
hPa
Rain since
9am
mm
Dir  Spd
km/h
Gust
km/h
Spd
kts
Gust
kts
26/10:00am 19.2 19.1 16.1 82 1.9 SE 11 15 6 8 1013.1 1012.1 0.0
26/09:30am 19.7 19.9 15.8 78 2.4 ENE 9 15 5 8 1012.9 1011.9 0.0
26/09:00am 18.4 17.8 15.6 84 1.7 E 13 19 7 10 1012.7 1011.7 0.0
26/08:30am 17.2 17.3 15.4 89 1.1 ESE 9 13 5 7 1012.7 1011.7 0.0
26/08:00am 17.2 16.1 15.4 89 1.1 E 15 17 8 9 1012.3 1011.3 0.0
26/07:30am 16.6 15.5 15.3 92 0.8 ESE 15 20 8 11 1012.1 1011.1 0.0
26/07:00am 17.2 16.1 15.4 89 1.1 ESE 15 17 8 9 1012.1 1011.1 0.0
26/06:30am 18.1 17.2 15.9 87 1.3 ENE 15 24 8 13 1011.8 1010.8 0.0
26/06:00am 17.2 17.3 15.5 90 1.0 ENE 9 13 5 7 1011.8 1010.8 0.0
26/05:30am 17.3 17.4 15.5 89 1.1 NE 9 13 5 7 1012.0 1011.0 0.0
26/05:00am 16.9 16.7 15.6 92 0.8 NE 11 13 6 7 1012.0 1011.0 0.0
26/04:30am 16.5 16.2 15.4 93 0.7 NE 11 17 6 9 1012.1 1011.1 0.0
26/04:00am 16.3 15.9 15.2 93 0.6 NE 11 15 6 8 1012.3 1011.3 0.0
26/03:30am 16.3 15.9 15.3 94 0.6 NE 11 19 6 10 1012.7 1011.7 0.0
26/03:00am 16.1 16.1 15.3 95 0.5 E 9 13 5 7 1013.4 1012.3 0.0
26/02:30am 16.0 15.7 15.5 97 0.3 E 11 17 6 9 1013.2 1012.2 0.0
26/02:00am 15.8 15.4 15.3 97 0.3 ESE 11 15 6 8 1013.6 1012.5 0.0
26/01:30am 15.9 15.2 15.4 97 0.3 ESE 13 17 7 9 1013.6 1012.5 0.0
26/01:00am 15.9 15.2 15.4 97 0.3 E 13 17 7 9 1014.1 1013.1 0.0
26/12:30am 15.9 14.4 15.3 96 0.4 E 17 20 9 11 1014.0 1012.9 0.0
26/12:00am 16.1 14.7 15.5 96 0.4 E 17 24 9 13 1014.2 1013.2 0.0
 
Date/Time
CDT
Temp
°C
App
Temp
°C
Dew
Point
°C
Rel
Hum
%
Delta-T
°C
Wind Press
QNH
hPa
Press
MSL
hPa
Rain since
9am
mm
Dir  Spd
km/h
Gust
km/h
Spd
kts
Gust
kts
25/11:30pm 16.1 15.1 15.5 96 0.4 E 15 20 8 11 1014.6 1013.6 0.0
25/11:00pm 16.2 14.8 15.6 96 0.4 E 17 24 9 13 1014.6 1013.6 0.0
25/10:30pm 16.2 14.7 15.4 95 0.5 ESE 17 24 9 13 1014.6 1013.6 0.0
25/10:00pm 16.3 14.4 15.3 94 0.6 ESE 19 26 10 14 1014.6 1013.6 0.0
25/09:30pm 16.6 15.9 15.3 92 0.8 ESE 13 19 7 10 1014.5 1013.5 0.0
25/09:00pm 16.9 15.4 15.2 90 1.0 ESE 17 22 9 12 1014.1 1013.1 0.0
25/08:30pm 17.9 17.9 15.3 85 1.5 ESE 9 15 5 8 1014.2 1013.2 0.0
25/08:00pm 18.3 16.0 15.6 84 1.6 ESE 22 30 12 16 1013.0 1012.0 0.0
25/07:30pm 19.0 19.3 15.9 82 1.9 ESE 9 15 5 8 1013.7 1012.6 0.0
25/07:00pm 19.4 19.7 15.9 80 2.1 SE 9 13 5 7 1013.7 1012.6 0.0
25/06:30pm 20.0 20.3 16.0 78 2.4 ESE 9 17 5 9 1013.0 1012.0 0.0
25/06:00pm 21.5 22.4 16.0 71 3.4 SSE 6 11 3 6 1013.4 1012.3 0.0
25/05:30pm 22.7 24.5 16.5 68 3.8 E 2 7 1 4 1012.9 1011.9 0.0
25/05:00pm 24.0 24.5 17.5 67 4.1 WSW 11 15 6 8 1013.1 1012.1 0.0
25/04:30pm 24.0 24.2 16.8 64 4.5 WSW 11 17 6 9 1012.8 1011.8 0.0
25/04:00pm 24.7 24.1 16.7 61 5.0 WSW 15 22 8 12 1012.9 1011.9 0.0
25/03:30pm 26.2 25.6 16.7 56 6.0 WSW 15 26 8 14 1012.7 1011.7 0.0
25/03:00pm 25.4 24.7 16.3 57 5.7 WSW 15 22 8 12 1012.9 1011.9 0.0
25/02:30pm 25.8 25.5 16.4 56 5.9 WSW 13 22 7 12 1013.0 1012.0 0.0
25/02:00pm 25.7 26.0 16.0 55 6.0 WSW 9 17 5 9 1013.5 1012.4 0.0
25/01:30pm 23.8 25.8 16.1 62 4.8 CALM 0 4 0 2 1014.0 1012.9 0.0
25/01:00pm 23.6 24.3 16.1 62 4.6 S 7 11 4 6 1013.9 1012.8 0.0
25/12:30pm 23.2 24.1 16.5 66 4.2 SSE 7 11 4 6 1014.1 1013.1 0.0
25/12:00pm 23.5 24.6 17.0 67 4.1 SSE 7 11 4 6 1014.2 1013.2 0.0
25/11:30am 23.2 24.4 17.4 70 3.6 W 7 11 4 6 1014.3 1013.3 0.0
25/11:00am 21.9 23.1 17.3 75 2.9 W 7 11 4 6 1014.3 1013.3 0.0
25/10:30am 21.3 23.7 17.1 77 2.6 CALM 0 0 0 0 1014.0 1012.9 0.0
25/10:00am 20.7 22.4 17.1 80 2.2 WSW 4 9 2 5 1013.6 1012.5 0.0
25/09:30am 20.3 21.3 16.9 81 2.1 WSW 7 11 4 6 1013.4 1012.3 0.0
25/09:00am 20.4 21.0 16.8 80 2.2 WNW 9 17 5 9 1013.2 1012.2 0.0
25/08:30am 19.5 19.5 17.1 86 1.5 WNW 13 19 7 10 1012.8 1011.8 0.0
25/08:00am 18.7 18.2 15.9 84 1.7 W 13 15 7 8 1012.8 1011.8 0.0
25/07:30am 18.8 18.5 15.5 81 2.0 WNW 11 15 6 8 1012.4 1011.4 0.0
25/07:00am 19.1 18.5 15.6 80 2.1 WNW 13 15 7 8 1011.9 1010.9 0.0
25/06:30am 19.9 19.3 14.7 72 3.1 W 11 15 6 8 1011.8 1010.8 0.0
25/06:00am 21.1 20.3 14.0 64 4.2 WNW 11 13 6 7 1011.6 1010.5 0.0
25/05:30am 21.5 20.7 13.9 62 4.5 WNW 11 13 6 7 1011.2 1010.1 0.0
25/05:00am 21.5 21.0 13.9 62 4.5 NW 9 13 5 7 1011.1 1010.0 0.0
25/04:30am 20.8 20.1 14.2 66 3.9 NNW 11 15 6 8 1010.8 1009.7 0.0
25/04:00am 20.6 20.0 14.7 69 3.5 NNW 11 17 6 9 1010.8 1009.7 0.0
25/03:30am 20.6 19.9 14.3 67 3.7 NNW 11 15 6 8 1011.0 1009.9 0.0
25/03:00am 21.3 20.5 14.0 63 4.3 NNW 11 15 6 8 1011.3 1010.2 0.0
25/02:30am 20.5 20.0 13.9 66 3.9 N 9 13 5 7 1011.6 1010.5 0.0
25/02:00am 20.9 20.2 14.3 66 3.9 NNE 11 13 6 7 1011.7 1010.7 0.0
25/01:30am 20.7 19.6 14.4 67 3.7 NE 13 19 7 10 1011.8 1010.8 0.0
25/01:00am 20.6 19.5 14.3 67 3.7 NE 13 17 7 9 1012.1 1011.1 0.0
25/12:30am 21.2 20.1 14.4 65 4.0 NE 13 17 7 9 1012.2 1011.2 0.0
25/12:00am 21.5 20.1 14.4 64 4.2 ENE 15 20 8 11 1012.0 1011.0 0.0
 
Date/Time
CDT
Temp
°C
App
Temp
°C
Dew
Point
°C
Rel
Hum
%
Delta-T
°C
Wind Press
QNH
hPa
Press
MSL
hPa
Rain since
9am
mm
Dir  Spd
km/h
Gust
km/h
Spd
kts
Gust
kts
24/11:30pm 21.9 20.0 14.3 62 4.5 E 17 22 9 12 1012.3 1011.3 0.0
24/11:00pm 21.8 19.9 14.2 62 4.5 ESE 17 22 9 12 1012.7 1011.7 0.0
24/10:30pm 21.6 20.6 14.5 64 4.2 SE 13 20 7 11 1013.6 1012.5 0.0
24/10:00pm 21.6 20.1 14.3 63 4.3 SE 15 20 8 11 1013.5 1012.4 0.0
24/09:30pm 22.3 20.7 13.9 59 5.0 SE 15 24 8 13 1013.4 1012.3 0.0
24/09:00pm 22.5 21.4 14.4 60 4.8 SE 13 20 7 11 1013.2 1012.2 0.0
24/08:30pm 22.6 22.0 14.7 61 4.7 SE 11 17 6 9 1013.1 1012.1 0.0
24/08:00pm 23.0 23.0 15.1 61 4.8 SSE 9 13 5 7 1012.9 1011.9 0.0
24/07:30pm 23.7 23.6 14.9 57 5.3 SSE 9 17 5 9 1012.7 1011.7 0.0
24/07:00pm 25.4 24.5 13.6 48 7.0 SW 11 13 6 7 1012.8 1011.8 0.0
24/06:30pm 26.7 26.6 13.8 45 7.8 SW 7 11 4 6 1012.1 1011.1 0.0
24/06:00pm 27.2 27.0 13.5 42 8.2 W 7 11 4 6 1012.2 1011.2 0.0
24/05:30pm 27.8 27.0 13.0 40 8.8 WSW 9 15 5 8 1012.4 1011.4 0.0
24/05:00pm 28.2 27.3 13.7 41 8.8 W 11 15 6 8 1012.5 1011.5 0.0
24/04:30pm 28.7 27.5 14.1 40 8.9 WSW 13 20 7 11 1012.7 1011.7 0.0
24/04:00pm 28.8 27.2 13.9 40 9.1 W 15 20 8 11 1012.5 1011.5 0.0
24/03:30pm 28.4 28.3 15.0 44 8.3 W 9 17 5 9 1012.5 1011.5 0.0
24/03:00pm 28.5 27.4 15.4 45 8.1 WNW 15 20 8 11 1012.6 1011.6 0.0
24/02:30pm 27.9 27.2 15.5 46 7.7 WSW 13 22 7 12 1012.8 1011.8 0.0
24/02:00pm 28.0 28.2 14.6 44 8.2 NW 7 19 4 10 1013.2 1012.2 0.0
24/01:30pm 27.6 27.9 14.9 45 7.8 N 7 15 4 8 1013.5 1012.4 0.0
24/01:00pm 28.2 27.8 16.1 47 7.6 NE 13 20 7 11 1013.8 1012.7 0.0
24/12:30pm 27.1 26.1 14.5 46 7.7 N 13 20 7 11 1014.2 1013.2 0.0
24/12:00pm 26.8 26.4 16.1 52 6.7 NNE 13 24 7 13 1014.2 1013.2 0.0
24/11:30am 25.7 24.5 16.0 55 6.0 NE 17 26 9 14 1014.4 1013.4 0.0
24/11:00am 24.2 22.4 15.9 59 5.1 NE 20 30 11 16 1014.6 1013.6 0.0
24/10:30am 23.3 22.3 16.6 66 4.2 ENE 17 24 9 13 1014.9 1013.9 0.0
24/10:00am 22.2 21.2 16.5 70 3.5 ENE 17 26 9 14 1015.1 1014.1 0.0
24/09:30am 20.0 18.0 15.4 75 2.8 NE 20 30 11 16 1015.1 1014.1 0.0
24/09:00am 18.5 16.1 14.4 77 2.4 NE 20 30 11 16 1014.8 1013.8 0.0
24/08:30am 18.8 16.0 14.3 75 2.6 NE 22 30 12 16 1014.9 1013.9 0.0
24/08:00am 18.0 15.4 13.7 76 2.5 NE 20 32 11 17 1014.8 1013.8 0.0
24/07:30am 17.3 14.5 13.2 77 2.3 ENE 20 32 11 17 1014.8 1013.8 0.0
24/07:00am 17.0 14.4 13.1 78 2.2 ENE 19 26 10 14 1015.0 1014.0 0.0
24/06:30am 16.6 14.3 12.9 79 2.1 NE 17 28 9 15 1014.7 1013.7 0.0
24/06:00am 17.0 13.8 13.1 78 2.2 ENE 22 32 12 17 1014.5 1013.5 0.0
24/05:30am 16.7 14.4 13.0 79 2.1 ENE 17 26 9 14 1014.6 1013.6 0.0
24/05:00am 17.3 14.6 12.8 75 2.6 ENE 19 26 10 14 1014.4 1013.4 0.0
24/04:30am 17.7 15.4 13.0 74 2.7 ENE 17 24 9 13 1014.6 1013.6 0.0
24/04:00am 18.1 15.2 13.0 72 2.9 E 20 26 11 14 1014.5 1013.5 0.0
24/03:30am 18.3 15.1 13.0 71 3.0 E 22 28 12 15 1014.7 1013.7 0.0
24/03:00am 18.3 15.1 13.2 72 2.9 E 22 28 12 15 1015.1 1014.1 0.0
24/02:30am 18.0 15.4 13.7 76 2.5 E 20 30 11 16 1015.5 1014.5 0.0
24/02:00am 17.6 15.7 14.1 80 2.0 ESE 17 22 9 12 1016.0 1015.0 0.0
24/01:30am 17.4 13.9 14.5 83 1.7 ESE 26 32 14 17 1015.9 1014.9 0.0
24/01:00am 17.1 15.8 14.7 86 1.4 SE 15 22 8 12 1016.5 1015.5 0.0
24/12:30am 17.2 15.5 14.8 86 1.4 SE 17 26 9 14 1016.7 1015.7 0.0
24/12:00am 17.3 15.1 14.8 85 1.5 SE 20 28 11 15 1016.7 1015.7 0.0
 
Date/Time
CDT
Temp
°C
App
Temp
°C
Dew
Point
°C
Rel
Hum
%
Delta-T
°C
Wind Press
QNH
hPa
Press
MSL
hPa
Rain since
9am
mm
Dir  Spd
km/h
Gust
km/h
Spd
kts
Gust
kts
23/11:30pm 17.2 14.9 14.7 85 1.5 SE 20 30 11 16 1016.7 1015.7 0.0
23/11:00pm 17.2 14.5 14.7 85 1.5 ESE 22 32 12 17 1016.6 1015.6 0.0
23/10:30pm 17.2 13.7 14.5 84 1.6 ESE 26 35 14 19 1016.5 1015.5 0.0
23/10:00pm 17.2 14.0 14.3 83 1.7 ESE 24 32 13 17 1016.4 1015.3 0.0
23/09:30pm 17.3 14.1 14.2 82 1.8 SE 24 33 13 18 1016.5 1015.5 0.0
23/09:00pm 17.2 14.2 13.7 80 2.0 SE 22 32 12 17 1016.0 1015.0 0.0
23/08:30pm 16.9 13.7 13.2 79 2.1 SE 22 32 12 17 1015.8 1014.8 0.0
23/08:00pm 16.7 13.1 13.2 80 2.0 ESE 24 35 13 19 1015.6 1014.6 0.0
23/07:30pm 17.1 13.6 13.4 79 2.1 ESE 24 35 13 19 1015.5 1014.5 0.0
23/07:00pm 17.7 14.3 13.6 77 2.4 ESE 24 32 13 17 1015.1 1014.1 0.0
23/06:30pm 18.7 15.8 14.0 74 2.7 ESE 22 32 12 17 1015.4 1014.4 0.0
23/06:00pm 20.1 17.2 14.0 68 3.6 SE 22 35 12 19 1015.3 1014.3 0.0
23/05:30pm 21.4 18.2 14.3 64 4.2 ESE 24 33 13 18 1015.2 1014.2 0.0
23/05:00pm 22.4 20.0 14.3 60 4.8 ESE 20 32 11 17 1015.1 1014.1 0.0
23/04:30pm 22.9 20.5 14.5 59 5.0 ESE 20 33 11 18 1015.2 1014.2 0.0
23/04:00pm 22.6 19.4 14.2 59 5.0 ESE 24 39 13 21 1015.3 1014.3 0.0
23/03:30pm 22.7 19.8 14.0 58 5.2 ESE 22 37 12 20 1015.2 1014.2 0.0
23/03:00pm 23.1 19.8 14.1 57 5.4 ESE 24 33 13 18 1015.2 1014.2 0.0
23/02:30pm 22.3 19.1 14.2 60 4.8 ESE 24 35 13 19 1015.6 1014.6 0.0
23/02:00pm 22.5 19.7 14.4 60 4.8 ESE 22 35 12 19 1015.9 1014.9 0.0
23/01:30pm 22.0 19.2 14.4 62 4.5 ESE 22 32 12 17 1016.4 1015.3 0.0
23/01:00pm 21.1 18.2 14.0 64 4.2 ESE 22 35 12 19 1016.9 1015.9 0.0
23/12:30pm 20.4 18.0 14.5 69 3.5 ESE 20 30 11 16 1017.3 1016.3 0.0
23/12:00pm 19.9 17.4 14.0 69 3.5 ESE 20 30 11 16 1017.8 1016.8 0.0
23/11:30am 18.6 16.7 14.1 75 2.6 ESE 17 26 9 14 1018.4 1017.4 0.0
23/11:00am 18.1 15.8 14.2 78 2.3 ESE 19 30 10 16 1018.3 1017.3 0.0
23/10:30am 16.4 14.0 13.7 84 1.5 E 19 28 10 15 1017.8 1016.8 0.0

Other Formats:

Comma delimited format used in spreadsheet applications
http://www.bom.gov.au/fwo/IDS60801/IDS60801.94683.axf

JavaScript Object Notation format (JSON) in row-major order
http://www.bom.gov.au/fwo/IDS60801/IDS60801.94683.json